createdAt,value
2019-05-14T00:02:12.391Z,10.90
2019-05-14T00:04:42.551Z,10.85
2019-05-14T00:07:12.318Z,10.77
2019-05-14T00:09:42.211Z,10.76
2019-05-14T00:12:11.882Z,10.76
2019-05-14T00:14:43.831Z,10.74
2019-05-14T00:17:12.431Z,10.72
2019-05-14T00:19:41.979Z,10.72
2019-05-14T00:22:11.867Z,10.73
2019-05-14T00:24:41.858Z,10.73
2019-05-14T00:27:11.995Z,10.73
2019-05-14T00:29:41.918Z,10.73
2019-05-14T00:32:11.600Z,10.69
2019-05-14T00:34:42.489Z,10.70
2019-05-14T00:37:12.160Z,10.67
2019-05-14T00:39:41.894Z,10.63
2019-05-14T00:42:12.576Z,10.60
2019-05-14T00:44:53.682Z,10.62
2019-05-14T00:47:13.567Z,10.60
2019-05-14T00:49:43.033Z,10.55
2019-05-14T00:52:12.524Z,10.57
2019-05-14T00:54:42.378Z,10.57
2019-05-14T00:57:12.194Z,10.55
2019-05-14T00:59:41.980Z,10.56
2019-05-14T01:02:11.721Z,10.56
2019-05-14T01:04:42.765Z,10.57
2019-05-14T01:07:12.571Z,10.57
2019-05-14T01:09:42.358Z,10.63
2019-05-14T01:12:12.365Z,10.66
2019-05-14T01:14:42.595Z,10.59
2019-05-14T01:17:12.230Z,10.57
2019-05-14T01:19:42.404Z,10.48
2019-05-14T01:22:12.609Z,10.52
2019-05-14T01:24:42.311Z,10.50
2019-05-14T01:27:12.462Z,10.45
2019-05-14T01:29:42.735Z,10.47
2019-05-14T01:32:12.621Z,10.42
2019-05-14T01:34:42.372Z,10.46
2019-05-14T01:37:12.042Z,10.43
2019-05-14T01:39:42.171Z,10.40
2019-05-14T01:42:12.641Z,10.44
2019-05-14T01:44:42.204Z,10.46
2019-05-14T01:47:12.743Z,10.43
2019-05-14T01:49:42.924Z,10.38
2019-05-14T01:52:12.614Z,10.36
2019-05-14T01:54:42.855Z,10.28
2019-05-14T01:57:12.561Z,10.35
2019-05-14T01:59:42.918Z,10.40
2019-05-14T02:02:12.714Z,10.42
2019-05-14T02:04:42.924Z,10.41
2019-05-14T02:07:15.885Z,10.34
2019-05-14T02:09:43.781Z,10.28
2019-05-14T02:12:13.188Z,10.29
2019-05-14T02:14:42.666Z,10.24
2019-05-14T02:17:12.677Z,10.30
2019-05-14T02:19:42.760Z,10.27
2019-05-14T02:22:12.398Z,10.22
2019-05-14T02:24:42.042Z,10.21
2019-05-14T02:27:12.463Z,10.24
2019-05-14T02:29:42.031Z,10.26
2019-05-14T02:32:11.485Z,10.25
2019-05-14T02:34:41.001Z,10.24
2019-05-14T02:37:10.464Z,10.26
2019-05-14T02:39:41.135Z,10.20
2019-05-14T02:42:10.784Z,10.20
2019-05-14T02:44:41.097Z,10.19
2019-05-14T02:47:10.750Z,10.15
2019-05-14T02:49:40.311Z,10.11
2019-05-14T02:52:10.435Z,10.09
2019-05-14T02:54:40.691Z,10.13
2019-05-14T02:57:10.923Z,10.06
2019-05-14T02:59:40.661Z,10.04
2019-05-14T03:02:10.515Z,10.04
2019-05-14T03:04:40.157Z,10.05
2019-05-14T03:07:11.074Z,10.04
2019-05-14T03:09:40.895Z,10.05
2019-05-14T03:12:10.600Z,10.05
2019-05-14T03:14:40.322Z,10.08
2019-05-14T03:17:10.602Z,10.01
2019-05-14T03:19:40.970Z,10.02
2019-05-14T03:22:10.752Z,9.98
2019-05-14T03:24:40.263Z,9.94
2019-05-14T03:27:10.182Z,9.99
2019-05-14T03:29:40.523Z,9.96
2019-05-14T03:32:13.124Z,9.89
2019-05-14T03:34:43.602Z,9.90
2019-05-14T03:37:14.026Z,9.85
2019-05-14T03:39:43.847Z,9.84
2019-05-14T03:42:13.309Z,9.85
2019-05-14T03:44:42.798Z,9.85
2019-05-14T03:47:12.282Z,9.80
2019-05-14T03:49:41.753Z,9.82
2019-05-14T03:52:11.169Z,9.88
2019-05-14T03:54:41.534Z,9.81
2019-05-14T03:57:11.000Z,9.83
2019-05-14T03:59:40.844Z,9.93
2019-05-14T04:02:10.671Z,9.94
2019-05-14T04:04:40.179Z,9.79
2019-05-14T04:07:09.980Z,9.80
2019-05-14T04:09:40.821Z,9.76
2019-05-14T04:12:10.534Z,9.72
2019-05-14T04:14:40.886Z,9.74
2019-05-14T04:17:15.086Z,9.80
2019-05-14T04:19:41.546Z,9.95
2019-05-14T04:22:12.961Z,9.86
2019-05-14T04:24:42.716Z,9.78
2019-05-14T04:27:14.155Z,9.74
2019-05-14T04:29:43.692Z,9.75
2019-05-14T04:32:13.248Z,9.76
2019-05-14T04:34:42.726Z,9.77
2019-05-14T04:37:12.407Z,9.80
2019-05-14T04:39:42.095Z,9.83
2019-05-14T04:42:11.501Z,9.87
2019-05-14T04:44:41.028Z,10.00
2019-05-14T04:47:29.219Z,10.04
2019-05-14T04:49:41.590Z,10.06
2019-05-14T04:52:11.068Z,10.04
2019-05-14T04:54:40.470Z,10.12
2019-05-14T04:57:10.702Z,10.19
2019-05-14T04:59:40.433Z,10.20
2019-05-14T05:02:10.033Z,10.29
2019-05-14T05:04:41.044Z,10.33
2019-05-14T05:07:10.702Z,10.27
2019-05-14T05:09:40.327Z,10.23
2019-05-14T05:12:09.852Z,10.25
2019-05-14T05:14:39.278Z,10.27
2019-05-14T05:17:09.449Z,10.24
2019-05-14T05:19:39.907Z,10.11
2019-05-14T05:22:10.276Z,10.31
2019-05-14T05:24:39.749Z,10.35
2019-05-14T05:27:09.460Z,10.44
2019-05-14T05:29:39.401Z,10.54
2019-05-14T05:32:09.071Z,10.65
2019-05-14T05:34:38.955Z,10.49
2019-05-14T05:37:08.809Z,10.47
2019-05-14T05:39:38.787Z,10.54
2019-05-14T05:42:09.174Z,10.55
2019-05-14T05:44:39.541Z,10.61
2019-05-14T05:47:09.408Z,10.59
2019-05-14T05:49:38.925Z,10.57
2019-05-14T05:52:08.760Z,10.54
2019-05-14T05:54:38.587Z,10.56
2019-05-14T05:57:09.356Z,10.48
2019-05-14T05:59:39.429Z,10.49
2019-05-14T06:02:09.622Z,10.52
2019-05-14T06:04:39.523Z,10.47
2019-05-14T06:07:09.171Z,10.44
2019-05-14T06:09:38.659Z,10.32
2019-05-14T06:12:08.729Z,10.31
2019-05-14T06:14:38.550Z,10.38
2019-05-14T06:17:08.675Z,10.40
2019-05-14T06:19:38.471Z,10.42
2019-05-14T06:22:09.749Z,10.44
2019-05-14T06:24:39.214Z,10.53
2019-05-14T06:27:09.424Z,10.50
2019-05-14T06:29:39.096Z,10.59
2019-05-14T06:32:09.245Z,10.70
2019-05-14T06:34:39.036Z,10.80
2019-05-14T06:37:08.626Z,10.99
2019-05-14T06:39:39.080Z,11.14
2019-05-14T06:42:09.016Z,11.13
2019-05-14T06:44:38.814Z,11.27
2019-05-14T06:47:09.289Z,11.33
2019-05-14T06:49:39.061Z,11.23
2019-05-14T06:52:08.928Z,11.05
2019-05-14T06:54:38.904Z,11.00
2019-05-14T06:57:09.027Z,11.13
2019-05-14T06:59:38.612Z,11.26
2019-05-14T07:02:08.702Z,11.26
2019-05-14T07:04:39.401Z,11.28
2019-05-14T07:07:09.135Z,11.35
2019-05-14T07:09:38.654Z,11.37
2019-05-14T07:12:09.158Z,11.34
2019-05-14T07:14:39.072Z,11.36
2019-05-14T07:17:09.270Z,11.36
2019-05-14T07:19:38.794Z,11.36
2019-05-14T07:22:08.969Z,11.48
2019-05-14T07:24:40.553Z,11.60
2019-05-14T07:27:09.796Z,11.62
2019-05-14T07:29:39.388Z,11.74
2019-05-14T07:32:09.221Z,11.74
2019-05-14T07:34:39.049Z,11.62
2019-05-14T07:37:09.574Z,11.62
2019-05-14T07:39:39.116Z,11.94
2019-05-14T07:42:09.806Z,11.98
2019-05-14T07:44:39.659Z,11.97
2019-05-14T07:47:09.068Z,12.00
2019-05-14T07:49:38.757Z,12.18
2019-05-14T07:52:09.434Z,12.29
2019-05-14T07:54:39.164Z,12.33
2019-05-14T07:57:09.005Z,12.36
2019-05-14T07:59:38.508Z,12.36
2019-05-14T08:02:09.330Z,12.63
2019-05-14T08:04:39.020Z,12.74
2019-05-14T08:07:09.146Z,12.65
2019-05-14T08:09:39.128Z,12.60
2019-05-14T08:12:09.353Z,12.58
2019-05-14T08:14:54.910Z,12.62
2019-05-14T08:17:10.544Z,12.62
2019-05-14T08:19:39.996Z,12.67
2019-05-14T08:22:09.763Z,12.75
2019-05-14T08:24:39.337Z,12.88
2019-05-14T08:27:08.800Z,13.00
2019-05-14T08:29:40.051Z,12.95
2019-05-14T08:32:09.436Z,12.80
2019-05-14T08:34:39.168Z,12.73
2019-05-14T08:37:08.781Z,12.85
2019-05-14T08:39:39.196Z,12.88
2019-05-14T08:42:08.922Z,12.75
2019-05-14T08:44:39.062Z,12.80
2019-05-14T08:47:09.618Z,12.92
2019-05-14T08:49:46.168Z,12.93
2019-05-14T08:52:10.508Z,12.89
2019-05-14T08:54:39.890Z,13.16
2019-05-14T08:57:09.934Z,13.46
2019-05-14T08:59:39.865Z,13.73
2019-05-14T09:02:10.595Z,13.83
2019-05-14T09:04:43.107Z,13.52
2019-05-14T09:07:11.636Z,13.36
2019-05-14T09:09:41.130Z,13.52
2019-05-14T09:12:12.511Z,13.68
2019-05-14T09:14:41.871Z,13.63
2019-05-14T09:17:14.626Z,13.47
2019-05-14T09:19:57.566Z,13.57
2019-05-14T09:22:13.684Z,13.47
2019-05-14T09:24:43.187Z,13.38
2019-05-14T09:27:12.692Z,13.44
2019-05-14T09:29:42.110Z,13.72
2019-05-14T09:32:11.677Z,13.66
2019-05-14T09:34:41.214Z,13.83
2019-05-14T09:37:11.185Z,13.92
2019-05-14T09:39:40.669Z,14.02
2019-05-14T09:42:10.323Z,14.27
2019-05-14T09:44:39.716Z,14.53
2019-05-14T09:47:09.115Z,14.54
2019-05-14T09:49:39.079Z,14.53
2019-05-14T09:52:09.127Z,14.45
2019-05-14T09:54:43.303Z,14.38
2019-05-14T09:57:09.989Z,14.27
2019-05-14T09:59:39.451Z,14.07
2019-05-14T10:02:09.297Z,13.89
2019-05-14T10:04:39.360Z,13.91
2019-05-14T10:07:09.055Z,14.00
2019-05-14T10:09:39.243Z,13.91
2019-05-14T10:12:09.111Z,13.82
2019-05-14T10:14:39.499Z,13.80
2019-05-14T10:17:09.055Z,13.55
2019-05-14T10:19:39.526Z,13.26
2019-05-14T10:22:09.141Z,13.11
2019-05-14T10:24:38.949Z,12.73
2019-05-14T10:27:09.135Z,12.32
2019-05-14T10:29:39.350Z,12.09
2019-05-14T10:32:09.066Z,12.00
2019-05-14T10:34:38.524Z,11.94
2019-05-14T10:37:08.609Z,11.76
2019-05-14T10:39:39.172Z,11.54
2019-05-14T10:42:09.203Z,11.64
2019-05-14T10:44:39.006Z,11.61
2019-05-14T10:47:09.504Z,11.74
2019-05-14T10:49:39.121Z,12.00
2019-05-14T10:52:08.535Z,12.20
2019-05-14T10:54:40.248Z,12.48
2019-05-14T10:57:09.863Z,12.53
2019-05-14T10:59:39.608Z,12.57
2019-05-14T11:02:11.996Z,12.42
2019-05-14T11:04:40.170Z,12.37
2019-05-14T11:07:09.653Z,12.17
2019-05-14T11:09:39.095Z,12.07
2019-05-14T11:12:09.101Z,12.08
2019-05-14T11:14:38.981Z,12.02
2019-05-14T11:17:11.829Z,12.09
2019-05-14T11:19:39.906Z,12.23
2019-05-14T11:22:09.303Z,12.30
2019-05-14T11:24:38.800Z,12.34
2019-05-14T11:27:08.348Z,12.31
2019-05-14T11:29:38.746Z,12.40
2019-05-14T11:32:09.763Z,12.65
2019-05-14T11:34:39.545Z,12.94
2019-05-14T11:37:08.941Z,12.98
2019-05-14T11:39:38.457Z,12.82
2019-05-14T11:42:08.670Z,12.68
2019-05-14T11:44:38.479Z,12.71
2019-05-14T11:47:09.029Z,12.55
2019-05-14T11:49:38.665Z,12.57
2019-05-14T11:52:11.537Z,12.38
2019-05-14T11:54:41.069Z,12.18
2019-05-14T11:57:11.775Z,12.03
2019-05-14T11:59:42.479Z,11.95
2019-05-14T12:02:11.882Z,11.84
2019-05-14T12:04:41.356Z,11.61
2019-05-14T12:07:10.753Z,11.53
2019-05-14T12:09:40.243Z,11.41
2019-05-14T12:12:12.385Z,11.26
2019-05-14T12:14:40.900Z,11.36
2019-05-14T12:17:10.324Z,11.46
2019-05-14T12:19:43.403Z,11.53
2019-05-14T12:22:12.150Z,11.48
2019-05-14T12:24:41.880Z,11.55
2019-05-14T12:27:11.361Z,11.59
2019-05-14T12:29:40.817Z,11.52
2019-05-14T12:32:12.535Z,11.72
2019-05-14T12:34:41.465Z,11.92
2019-05-14T12:37:10.924Z,11.89
2019-05-14T12:39:40.415Z,12.08
2019-05-14T12:42:11.033Z,12.18
2019-05-14T12:44:41.076Z,12.29
2019-05-14T12:47:10.690Z,12.56
2019-05-14T12:49:40.162Z,12.84
2019-05-14T12:52:22.189Z,13.08
2019-05-14T12:54:40.891Z,13.16
2019-05-14T12:57:10.281Z,13.27
2019-05-14T12:59:39.754Z,13.42
2019-05-14T13:02:09.873Z,13.56
2019-05-14T13:04:39.591Z,13.78
2019-05-14T13:07:09.259Z,13.88
2019-05-14T13:09:38.846Z,13.84
2019-05-14T13:12:11.355Z,13.51
2019-05-14T13:14:39.663Z,13.25
2019-05-14T13:17:09.476Z,13.08
2019-05-14T13:19:39.011Z,13.18
2019-05-14T13:22:13.543Z,13.25
2019-05-14T13:24:39.706Z,13.42
2019-05-14T13:27:09.583Z,13.63
2019-05-14T13:29:39.231Z,13.64
2019-05-14T13:32:12.403Z,13.72
2019-05-14T13:34:40.030Z,13.70
2019-05-14T13:37:09.521Z,13.94
2019-05-14T13:39:39.934Z,13.85
2019-05-14T13:42:12.031Z,13.79
2019-05-14T13:44:40.904Z,13.77
2019-05-14T13:47:10.371Z,13.87
2019-05-14T13:49:39.714Z,14.06
2019-05-14T13:52:09.501Z,13.97
2019-05-14T13:54:39.508Z,13.75
2019-05-14T13:57:11.921Z,13.49
2019-05-14T13:59:43.961Z,13.41
2019-05-14T14:02:11.449Z,13.47
2019-05-14T14:04:40.841Z,13.47
2019-05-14T14:07:10.308Z,13.38
2019-05-14T14:09:39.899Z,13.26
2019-05-14T14:12:09.426Z,13.12
2019-05-14T14:14:39.765Z,12.97
2019-05-14T14:17:09.201Z,12.87
2019-05-14T14:19:38.994Z,12.75
2019-05-14T14:22:09.936Z,12.71
2019-05-14T14:24:39.750Z,13.03
2019-05-14T14:27:09.309Z,13.09
2019-05-14T14:29:39.673Z,13.01
2019-05-14T14:32:11.467Z,12.88
2019-05-14T14:34:41.344Z,12.84
2019-05-14T14:37:11.178Z,12.89
2019-05-14T14:39:40.652Z,12.88
2019-05-14T14:42:10.080Z,12.88
2019-05-14T14:44:39.481Z,12.88
2019-05-14T14:47:08.881Z,12.82
2019-05-14T14:49:43.145Z,12.76
2019-05-14T14:52:12.167Z,12.62
2019-05-14T14:54:40.749Z,12.62
2019-05-14T14:57:10.143Z,12.72
2019-05-14T14:59:39.628Z,12.90
2019-05-14T15:02:10.299Z,12.95
2019-05-14T15:04:40.094Z,12.90
2019-05-14T15:07:09.982Z,12.97
2019-05-14T15:09:40.612Z,13.11
2019-05-14T15:12:10.282Z,13.09
2019-05-14T15:14:40.088Z,13.12
2019-05-14T15:17:09.944Z,12.87
2019-05-14T15:19:39.859Z,12.72
2019-05-14T15:22:09.470Z,12.62
2019-05-14T15:24:38.964Z,12.35
2019-05-14T15:27:14.915Z,12.02
2019-05-14T15:29:42.893Z,11.87
2019-05-14T15:32:10.901Z,11.62
2019-05-14T15:34:40.377Z,11.52
2019-05-14T15:37:09.870Z,11.46
2019-05-14T15:39:39.342Z,11.49
2019-05-14T15:42:13.915Z,11.55
2019-05-14T15:44:48.856Z,11.58
2019-05-14T15:47:11.801Z,11.61
2019-05-14T15:50:09.146Z,11.48
2019-05-14T15:52:39.797Z,11.26
2019-05-14T15:55:10.936Z,11.20
2019-05-14T15:57:43.250Z,11.19
2019-05-14T16:00:13.558Z,11.15
2019-05-14T16:02:43.016Z,11.12
2019-05-14T16:05:12.694Z,11.18
2019-05-14T16:07:42.194Z,11.11
2019-05-14T16:10:12.170Z,11.10
2019-05-14T16:12:41.708Z,11.09
2019-05-14T16:15:11.354Z,11.00
2019-05-14T16:17:50.522Z,11.02
2019-05-14T16:20:12.042Z,10.94
2019-05-14T16:22:41.769Z,10.76
2019-05-14T16:25:11.248Z,10.63
2019-05-14T16:27:40.707Z,10.53
2019-05-14T16:30:10.445Z,10.48
2019-05-14T16:32:40.110Z,10.53
2019-05-14T16:35:09.788Z,10.47
2019-05-14T16:37:39.498Z,10.49
2019-05-14T16:40:09.961Z,10.55
2019-05-14T16:42:39.918Z,10.66
2019-05-14T16:45:09.605Z,10.65
2019-05-14T16:47:39.911Z,10.64
2019-05-14T16:50:10.665Z,10.66
2019-05-14T16:52:42.254Z,10.68
2019-05-14T16:55:23.050Z,10.85
2019-05-14T16:57:42.647Z,10.85
2019-05-14T17:00:12.266Z,10.70
2019-05-14T17:02:41.723Z,10.68
2019-05-14T17:05:11.192Z,10.65
2019-05-14T17:07:40.690Z,10.52
2019-05-14T17:10:10.173Z,10.44
2019-05-14T17:12:51.922Z,10.38
2019-05-14T17:15:10.853Z,10.34
2019-05-14T17:17:40.330Z,10.23
2019-05-14T17:20:09.754Z,10.26
2019-05-14T17:22:39.961Z,10.21
2019-05-14T17:25:09.925Z,10.24
2019-05-14T17:27:39.858Z,10.20
2019-05-14T17:30:09.386Z,10.07
2019-05-14T17:32:39.418Z,10.05
2019-05-14T17:35:10.710Z,9.98
2019-05-14T17:37:40.431Z,9.86
2019-05-14T17:40:09.883Z,9.81
2019-05-14T17:42:39.825Z,9.78
2019-05-14T17:45:09.312Z,9.84
2019-05-14T17:47:39.455Z,9.74
2019-05-14T17:50:08.973Z,9.62
2019-05-14T17:52:42.959Z,9.58
2019-05-14T17:55:12.069Z,9.58
2019-05-14T17:57:47.784Z,9.66
2019-05-14T18:00:12.816Z,9.59
2019-05-14T18:02:42.325Z,9.67
2019-05-14T18:05:11.807Z,9.66
2019-05-14T18:07:41.268Z,9.54
2019-05-14T18:10:10.761Z,9.51
2019-05-14T18:12:40.277Z,9.52
2019-05-14T18:15:09.925Z,9.46
2019-05-14T18:17:39.709Z,9.41
2019-05-14T18:20:09.368Z,9.35
2019-05-14T18:22:42.046Z,9.33
2019-05-14T18:25:10.322Z,9.28
2019-05-14T18:27:40.081Z,9.30
2019-05-14T18:30:09.805Z,9.31
2019-05-14T18:32:39.500Z,9.27
2019-05-14T18:35:08.975Z,9.21
2019-05-14T18:37:38.944Z,9.19
2019-05-14T18:40:09.264Z,9.19
2019-05-14T18:42:39.264Z,9.18
2019-05-14T18:45:10.009Z,9.34
2019-05-14T18:47:40.076Z,9.24
2019-05-14T18:50:09.657Z,9.23
2019-05-14T18:52:40.168Z,9.12
2019-05-14T18:55:09.902Z,9.03
2019-05-14T18:57:39.347Z,9.00
2019-05-14T19:00:09.366Z,9.08
2019-05-14T19:02:39.339Z,9.12
2019-05-14T19:05:08.934Z,9.07
2019-05-14T19:07:39.399Z,8.99
2019-05-14T19:10:09.572Z,8.94
2019-05-14T19:12:39.184Z,9.08
2019-05-14T19:15:09.012Z,9.08
2019-05-14T19:17:38.949Z,8.94
2019-05-14T19:20:09.488Z,9.03
2019-05-14T19:22:39.812Z,9.02
2019-05-14T19:25:09.596Z,8.92
2019-05-14T19:27:39.045Z,8.92
2019-05-14T19:30:08.697Z,8.86
2019-05-14T19:32:39.193Z,8.90
2019-05-14T19:35:08.995Z,8.83
2019-05-14T19:37:39.306Z,8.91
2019-05-14T19:40:09.414Z,8.88
2019-05-14T19:42:39.448Z,8.85
2019-05-14T19:45:09.801Z,8.85
2019-05-14T19:47:40.193Z,8.83
2019-05-14T19:50:11.123Z,8.77
2019-05-14T19:52:40.534Z,8.78
2019-05-14T19:55:10.018Z,8.75
2019-05-14T19:57:39.483Z,8.84
2019-05-14T20:00:09.346Z,8.83
2019-05-14T20:02:38.923Z,8.84
2019-05-14T20:05:09.245Z,8.83
2019-05-14T20:07:39.173Z,8.90
2019-05-14T20:10:08.989Z,8.96
2019-05-14T20:12:39.230Z,8.96
2019-05-14T20:15:09.757Z,9.01
2019-05-14T20:17:39.251Z,8.90
2019-05-14T20:20:09.202Z,8.84
2019-05-14T20:22:39.710Z,8.80
2019-05-14T20:25:09.665Z,8.76
2019-05-14T20:27:39.415Z,8.76
2019-05-14T20:30:09.635Z,8.79
2019-05-14T20:32:39.189Z,8.87
2019-05-14T20:35:09.272Z,8.76
2019-05-14T20:37:39.173Z,8.71
2019-05-14T20:40:08.677Z,8.76
2019-05-14T20:42:39.023Z,8.82
2019-05-14T20:45:09.125Z,8.86
2019-05-14T20:47:39.220Z,8.85
2019-05-14T20:50:09.230Z,8.81
2019-05-14T20:52:38.891Z,8.80
2019-05-14T20:55:09.504Z,8.87
2019-05-14T20:57:39.297Z,8.79
2019-05-14T21:00:11.493Z,8.83
2019-05-14T21:02:40.575Z,8.80
2019-05-14T21:05:13.652Z,8.79
2019-05-14T21:07:41.286Z,8.76
2019-05-14T21:10:10.741Z,8.81
2019-05-14T21:12:40.198Z,8.79
2019-05-14T21:15:09.919Z,8.76
2019-05-14T21:17:39.968Z,8.75
2019-05-14T21:20:09.432Z,8.74
2019-05-14T21:22:39.972Z,8.71
2019-05-14T21:25:12.567Z,8.68
2019-05-14T21:27:48.274Z,8.77
2019-05-14T21:30:12.352Z,8.76
2019-05-14T21:32:42.641Z,8.74
2019-05-14T21:35:12.452Z,8.73
2019-05-14T21:37:41.953Z,8.77
2019-05-14T21:40:11.401Z,8.82
2019-05-14T21:42:40.866Z,8.90
2019-05-14T21:45:10.360Z,8.91
2019-05-14T21:47:39.813Z,8.87
2019-05-14T21:50:10.039Z,8.88
2019-05-14T21:52:42.341Z,8.89
2019-05-14T21:55:11.049Z,8.94
2019-05-14T21:57:53.312Z,8.86
2019-05-14T22:00:30.136Z,8.77
2019-05-14T22:02:59.608Z,8.83
2019-05-14T22:05:29.076Z,8.85
2019-05-14T22:07:58.586Z,8.79
2019-05-14T22:10:28.757Z,8.78
2019-05-14T22:12:58.581Z,8.75
2019-05-14T22:15:29.272Z,8.82
2019-05-14T22:17:58.974Z,8.80
2019-05-14T22:20:29.059Z,8.74
2019-05-14T22:22:59.199Z,8.75
2019-05-14T22:25:28.726Z,8.70
2019-05-14T22:28:11.683Z,8.68
2019-05-14T22:30:29.570Z,8.69
2019-05-14T22:33:00.732Z,8.63
2019-05-14T22:35:31.270Z,8.58
2019-05-14T22:38:00.848Z,8.61
2019-05-14T22:40:30.297Z,8.57
2019-05-14T22:43:00.322Z,8.64
2019-05-14T22:45:29.926Z,8.70
2019-05-14T22:47:59.332Z,8.70
2019-05-14T22:50:29.350Z,8.68
2019-05-14T22:52:59.322Z,8.65
2019-05-14T22:55:31.195Z,8.64
2019-05-14T22:58:00.107Z,8.69
2019-05-14T23:00:29.583Z,8.67
2019-05-14T23:02:58.983Z,8.69
2019-05-14T23:05:29.147Z,8.67
2019-05-14T23:07:58.715Z,8.72
2019-05-14T23:10:28.182Z,8.71
2019-05-14T23:12:58.562Z,8.70
2019-05-14T23:15:28.958Z,8.78
2019-05-14T23:17:58.827Z,8.78
2019-05-14T23:20:29.334Z,8.75
2019-05-14T23:22:58.771Z,8.77
2019-05-14T23:25:29.172Z,8.78
2019-05-14T23:27:59.111Z,8.84
2019-05-14T23:30:34.068Z,8.89
2019-05-14T23:33:03.525Z,8.92
2019-05-14T23:35:32.839Z,8.97
2019-05-14T23:38:02.241Z,8.97
2019-05-14T23:40:31.723Z,8.97
2019-05-14T23:43:01.207Z,8.95
2019-05-14T23:45:30.668Z,8.96
2019-05-14T23:48:00.018Z,8.96
2019-05-14T23:50:29.477Z,9.02
2019-05-14T23:53:00.114Z,8.95
2019-05-14T23:55:29.618Z,8.89
2019-05-14T23:57:59.016Z,8.87
